Terminal Aerodrome Forecast
Issued by NWS Jackson, MS

Home | Current Version | Previous Version | Text Only | Print | Product List | Glossary On
Versions: 1 2 3 4 5 6 7 8 9 10 11 12 13 14 15 16 17 18 19
000
FTUS44 KJAN 191431 AAA
TAFGWO
TAF AMD
KGWO 191431Z 1915/2012 19010KT P6SM SCT030 BKN100
     FM191700 21009G15KT P6SM VCSH BKN035 BKN100
     FM192200 20010KT P6SM VCTS SCT050CB
     FM200600 23010KT P6SM OVC050=

USA.gov is the U.S. government's official web portal to all federal, state and local government web resources and services.